sensor_id;sensor_type;location;lat;lon;timestamp;P1;durP1;ratioP1;P2;durP2;ratioP2
36833;SDS011;48003;52.084;5.224;2023-03-08T00:01:43;7.1;;;3.3;;
36833;SDS011;48003;52.084;5.224;2023-03-08T00:03:19;7.9;;;3.7;;
36833;SDS011;48003;52.084;5.224;2023-03-08T00:04:56;6.4;;;3.2;;
36833;SDS011;48003;52.084;5.224;2023-03-08T00:08:09;8.0;;;3.3;;
36833;SDS011;48003;52.084;5.224;2023-03-08T00:09:45;7.9;;;3.5;;
36833;SDS011;48003;52.084;5.224;2023-03-08T00:11:22;6.5;;;3.4;;
36833;SDS011;48003;52.084;5.224;2023-03-08T00:14:35;6.8;;;3.1;;
36833;SDS011;48003;52.084;5.224;2023-03-08T00:16:12;6.8;;;2.9;;
36833;SDS011;48003;52.084;5.224;2023-03-08T00:17:49;8.2;;;3.6;;
36833;SDS011;48003;52.084;5.224;2023-03-08T00:19:25;7.6;;;2.9;;
36833;SDS011;48003;52.084;5.224;2023-03-08T00:22:40;7.0;;;3.2;;
36833;SDS011;48003;52.084;5.224;2023-03-08T00:24:17;6.5;;;2.8;;
36833;SDS011;48003;52.084;5.224;2023-03-08T00:25:53;6.6;;;3.3;;
36833;SDS011;48003;52.084;5.224;2023-03-08T00:29:07;5.3;;;2.5;;
36833;SDS011;48003;52.084;5.224;2023-03-08T00:30:43;4.61;;;2.31;;
36833;SDS011;48003;52.084;5.224;2023-03-08T00:32:19;5.11;;;2.5;;
36833;SDS011;48003;52.084;5.224;2023-03-08T00:33:56;6.3;;;2.6;;
36833;SDS011;48003;52.084;5.224;2023-03-08T00:37:08;6.8;;;2.7;;
36833;SDS011;48003;52.084;5.224;2023-03-08T00:38:45;6.8;;;2.8;;
36833;SDS011;48003;52.084;5.224;2023-03-08T00:40:23;6.6;;;3.1;;
36833;SDS011;48003;52.084;5.224;2023-03-08T00:43:35;6.3;;;2.8;;
36833;SDS011;48003;52.084;5.224;2023-03-08T00:45:12;7.4;;;2.8;;
36833;SDS011;48003;52.084;5.224;2023-03-08T00:46:48;6.4;;;2.9;;
36833;SDS011;48003;52.084;5.224;2023-03-08T00:50:01;4.8;;;2.31;;
36833;SDS011;48003;52.084;5.224;2023-03-08T00:51:38;5.4;;;2.5;;
36833;SDS011;48003;52.084;5.224;2023-03-08T00:53:14;5.4;;;2.6;;
36833;SDS011;48003;52.084;5.224;2023-03-08T00:56:26;6.8;;;3.2;;
36833;SDS011;48003;52.084;5.224;2023-03-08T00:58:02;5.4;;;2.6;;
36833;SDS011;48003;52.084;5.224;2023-03-08T00:59:39;8.0;;;3.1;;
36833;SDS011;48003;52.084;5.224;2023-03-08T01:01:16;6.1;;;2.6;;
36833;SDS011;48003;52.084;5.224;2023-03-08T01:04:31;5.4;;;2.7;;
36833;SDS011;48003;52.084;5.224;2023-03-08T01:06:09;5.2;;;2.9;;
36833;SDS011;48003;52.084;5.224;2023-03-08T01:07:47;6.2;;;2.9;;
36833;SDS011;48003;52.084;5.224;2023-03-08T01:10:59;6.7;;;2.8;;
36833;SDS011;48003;52.084;5.224;2023-03-08T01:12:36;6.8;;;3.0;;
36833;SDS011;48003;52.084;5.224;2023-03-08T01:14:13;4.8;;;2.6;;
36833;SDS011;48003;52.084;5.224;2023-03-08T01:15:50;4.8;;;2.9;;
36833;SDS011;48003;52.084;5.224;2023-03-08T01:20:39;5.11;;;2.6;;
36833;SDS011;48003;52.084;5.224;2023-03-08T01:22:15;5.2;;;2.7;;
36833;SDS011;48003;52.084;5.224;2023-03-08T01:25:28;5.2;;;3.0;;
36833;SDS011;48003;52.084;5.224;2023-03-08T01:27:05;8.2;;;2.8;;
36833;SDS011;48003;52.084;5.224;2023-03-08T01:28:41;5.9;;;2.9;;
36833;SDS011;48003;52.084;5.224;2023-03-08T01:31:55;4.61;;;2.7;;
36833;SDS011;48003;52.084;5.224;2023-03-08T01:33:32;6.3;;;3.1;;
36833;SDS011;48003;52.084;5.224;2023-03-08T01:35:09;5.11;;;3.0;;
36833;SDS011;48003;52.084;5.224;2023-03-08T01:36:45;4.61;;;2.7;;
36833;SDS011;48003;52.084;5.224;2023-03-08T01:39:58;6.4;;;3.0;;
36833;SDS011;48003;52.084;5.224;2023-03-08T01:41:34;6.1;;;2.8;;
36833;SDS011;48003;52.084;5.224;2023-03-08T01:43:19;5.7;;;3.0;;
36833;SDS011;48003;52.084;5.224;2023-03-08T01:46:35;6.3;;;3.7;;
36833;SDS011;48003;52.084;5.224;2023-03-08T01:48:11;6.3;;;3.8;;
36833;SDS011;48003;52.084;5.224;2023-03-08T01:49:51;5.8;;;3.4;;
36833;SDS011;48003;52.084;5.224;2023-03-08T01:51:32;7.1;;;3.6;;
36833;SDS011;48003;52.084;5.224;2023-03-08T01:54:50;6.7;;;3.3;;
36833;SDS011;48003;52.084;5.224;2023-03-08T01:56:29;6.5;;;3.6;;
36833;SDS011;48003;52.084;5.224;2023-03-08T01:58:05;4.91;;;3.4;;
36833;SDS011;48003;52.084;5.224;2023-03-08T02:01:19;6.5;;;3.4;;
36833;SDS011;48003;52.084;5.224;2023-03-08T02:02:57;4.8;;;3.6;;
36833;SDS011;48003;52.084;5.224;2023-03-08T02:04:36;6.5;;;3.8;;
36833;SDS011;48003;52.084;5.224;2023-03-08T02:06:14;6.9;;;3.8;;
36833;SDS011;48003;52.084;5.224;2023-03-08T02:09:29;6.0;;;3.8;;
36833;SDS011;48003;52.084;5.224;2023-03-08T02:11:06;6.6;;;4.2;;
36833;SDS011;48003;52.084;5.224;2023-03-08T02:12:43;7.6;;;3.8;;
36833;SDS011;48003;52.084;5.224;2023-03-08T02:14:21;8.71;;;4.5;;
36833;SDS011;48003;52.084;5.224;2023-03-08T02:17:35;7.1;;;3.7;;
36833;SDS011;48003;52.084;5.224;2023-03-08T02:19:13;5.3;;;3.2;;
36833;SDS011;48003;52.084;5.224;2023-03-08T02:20:57;4.8;;;3.7;;
36833;SDS011;48003;52.084;5.224;2023-03-08T02:24:16;7.7;;;3.8;;
36833;SDS011;48003;52.084;5.224;2023-03-08T02:25:55;5.7;;;3.8;;
36833;SDS011;48003;52.084;5.224;2023-03-08T02:27:35;7.3;;;5.11;;
36833;SDS011;48003;52.084;5.224;2023-03-08T02:29:11;8.0;;;5.8;;
36833;SDS011;48003;52.084;5.224;2023-03-08T02:32:24;9.0;;;6.2;;
36833;SDS011;48003;52.084;5.224;2023-03-08T02:34:00;10.5;;;6.5;;
36833;SDS011;48003;52.084;5.224;2023-03-08T02:35:36;7.8;;;6.2;;
36833;SDS011;48003;52.084;5.224;2023-03-08T02:38:49;10.9;;;7.2;;
36833;SDS011;48003;52.084;5.224;2023-03-08T02:40:25;9.4;;;6.5;;
36833;SDS011;48003;52.084;5.224;2023-03-08T02:42:01;11.7;;;7.4;;
36833;SDS011;48003;52.084;5.224;2023-03-08T02:45:13;10.4;;;7.2;;
36833;SDS011;48003;52.084;5.224;2023-03-08T02:46:49;9.9;;;7.1;;
36833;SDS011;48003;52.084;5.224;2023-03-08T02:48:27;9.81;;;6.8;;
36833;SDS011;48003;52.084;5.224;2023-03-08T02:50:03;11.2;;;7.2;;
36833;SDS011;48003;52.084;5.224;2023-03-08T02:53:17;12.2;;;7.8;;
36833;SDS011;48003;52.084;5.224;2023-03-08T02:54:53;10.8;;;7.8;;
36833;SDS011;48003;52.084;5.224;2023-03-08T02:56:30;11.3;;;8.0;;
36833;SDS011;48003;52.084;5.224;2023-03-08T02:59:45;12.2;;;8.6;;
36833;SDS011;48003;52.084;5.224;2023-03-08T03:01:21;15.2;;;9.81;;
36833;SDS011;48003;52.084;5.224;2023-03-08T03:04:34;17.2;;;11.5;;
36833;SDS011;48003;52.084;5.224;2023-03-08T03:07:49;16.11;;;10.5;;
36833;SDS011;48003;52.084;5.224;2023-03-08T03:09:26;17.91;;;10.3;;
36833;SDS011;48003;52.084;5.224;2023-03-08T03:11:09;12.2;;;8.6;;
36833;SDS011;48003;52.084;5.224;2023-03-08T03:14:22;15.9;;;10.4;;
36833;SDS011;48003;52.084;5.224;2023-03-08T03:15:58;11.8;;;9.6;;
36833;SDS011;48003;52.084;5.224;2023-03-08T03:17:39;14.0;;;10.8;;
36833;SDS011;48003;52.084;5.224;2023-03-08T03:19:15;12.4;;;9.4;;
36833;SDS011;48003;52.084;5.224;2023-03-08T03:22:27;12.3;;;9.81;;
36833;SDS011;48003;52.084;5.224;2023-03-08T03:24:04;14.2;;;9.9;;
36833;SDS011;48003;52.084;5.224;2023-03-08T03:28:54;16.7;;;10.21;;
36833;SDS011;48003;52.084;5.224;2023-03-08T03:30:31;12.8;;;9.81;;
36833;SDS011;48003;52.084;5.224;2023-03-08T03:32:07;13.1;;;9.81;;
36833;SDS011;48003;52.084;5.224;2023-03-08T03:35:20;16.2;;;11.8;;
36833;SDS011;48003;52.084;5.224;2023-03-08T03:38:33;21.6;;;14.1;;
36833;SDS011;48003;52.084;5.224;2023-03-08T03:40:09;20.0;;;14.5;;
36833;SDS011;48003;52.084;5.224;2023-03-08T03:43:23;22.6;;;14.4;;
36833;SDS011;48003;52.084;5.224;2023-03-08T03:44:59;20.5;;;15.4;;
36833;SDS011;48003;52.084;5.224;2023-03-08T03:46:35;21.7;;;15.2;;
36833;SDS011;48003;52.084;5.224;2023-03-08T03:49:49;20.8;;;15.1;;
36833;SDS011;48003;52.084;5.224;2023-03-08T03:51:25;27.6;;;18.3;;
36833;SDS011;48003;52.084;5.224;2023-03-08T03:53:01;33.0;;;20.11;;
36833;SDS011;48003;52.084;5.224;2023-03-08T03:56:14;35.5;;;22.3;;
36833;SDS011;48003;52.084;5.224;2023-03-08T03:57:52;32.21;;;20.7;;
36833;SDS011;48003;52.084;5.224;2023-03-08T03:59:28;31.9;;;18.2;;
36833;SDS011;48003;52.084;5.224;2023-03-08T04:01:05;32.8;;;19.61;;
36833;SDS011;48003;52.084;5.224;2023-03-08T04:04:19;32.8;;;20.6;;
36833;SDS011;48003;52.084;5.224;2023-03-08T04:06:03;36.4;;;21.5;;
36833;SDS011;48003;52.084;5.224;2023-03-08T04:07:41;32.5;;;20.7;;
36833;SDS011;48003;52.084;5.224;2023-03-08T04:10:58;45.7;;;22.3;;
36833;SDS011;48003;52.084;5.224;2023-03-08T04:12:35;41.4;;;22.6;;
36833;SDS011;48003;52.084;5.224;2023-03-08T04:14:11;42.7;;;22.7;;
36833;SDS011;48003;52.084;5.224;2023-03-08T04:15:47;41.1;;;22.7;;
36833;SDS011;48003;52.084;5.224;2023-03-08T04:19:00;47.1;;;24.9;;
36833;SDS011;48003;52.084;5.224;2023-03-08T04:20:38;33.1;;;19.61;;
36833;SDS011;48003;52.084;5.224;2023-03-08T04:22:15;36.81;;;21.0;;
36833;SDS011;48003;52.084;5.224;2023-03-08T04:25:27;40.31;;;23.5;;
36833;SDS011;48003;52.084;5.224;2023-03-08T04:27:03;40.6;;;22.7;;
36833;SDS011;48003;52.084;5.224;2023-03-08T04:28:39;42.9;;;23.4;;
36833;SDS011;48003;52.084;5.224;2023-03-08T04:31:52;40.9;;;24.0;;
36833;SDS011;48003;52.084;5.224;2023-03-08T04:33:28;39.31;;;23.4;;
36833;SDS011;48003;52.084;5.224;2023-03-08T04:35:05;45.6;;;24.2;;
36833;SDS011;48003;52.084;5.224;2023-03-08T04:36:42;45.3;;;24.5;;
36833;SDS011;48003;52.084;5.224;2023-03-08T04:39:54;43.3;;;24.8;;
36833;SDS011;48003;52.084;5.224;2023-03-08T04:41:30;46.1;;;25.7;;
36833;SDS011;48003;52.084;5.224;2023-03-08T04:43:06;46.1;;;25.4;;
36833;SDS011;48003;52.084;5.224;2023-03-08T04:46:20;41.5;;;24.7;;
36833;SDS011;48003;52.084;5.224;2023-03-08T04:47:59;47.7;;;25.7;;
36833;SDS011;48003;52.084;5.224;2023-03-08T04:49:35;46.4;;;25.1;;
36833;SDS011;48003;52.084;5.224;2023-03-08T04:52:50;47.2;;;27.0;;
36833;SDS011;48003;52.084;5.224;2023-03-08T04:54:26;53.9;;;27.9;;
36833;SDS011;48003;52.084;5.224;2023-03-08T04:56:03;47.6;;;27.0;;
36833;SDS011;48003;52.084;5.224;2023-03-08T04:57:41;49.9;;;28.0;;
36833;SDS011;48003;52.084;5.224;2023-03-08T05:00:53;60.5;;;30.1;;
36833;SDS011;48003;52.084;5.224;2023-03-08T05:02:30;54.7;;;30.0;;
36833;SDS011;48003;52.084;5.224;2023-03-08T05:04:07;56.6;;;30.7;;
36833;SDS011;48003;52.084;5.224;2023-03-08T05:07:22;69.8;;;32.71;;
36833;SDS011;48003;52.084;5.224;2023-03-08T05:08:59;66.0;;;34.71;;
36833;SDS011;48003;52.084;5.224;2023-03-08T05:10:35;67.41;;;34.6;;
36833;SDS011;48003;52.084;5.224;2023-03-08T05:12:11;72.11;;;34.4;;
36833;SDS011;48003;52.084;5.224;2023-03-08T05:15:24;76.3;;;35.9;;
36833;SDS011;48003;52.084;5.224;2023-03-08T05:17:00;84.8;;;36.6;;
36833;SDS011;48003;52.084;5.224;2023-03-08T05:18:36;102.4;;;36.71;;
36833;SDS011;48003;52.084;5.224;2023-03-08T05:21:49;78.0;;;37.31;;
36833;SDS011;48003;52.084;5.224;2023-03-08T05:23:26;84.5;;;39.1;;
36833;SDS011;48003;52.084;5.224;2023-03-08T05:25:03;75.61;;;39.1;;
36833;SDS011;48003;52.084;5.224;2023-03-08T05:28:16;81.11;;;38.71;;
36833;SDS011;48003;52.084;5.224;2023-03-08T05:29:52;74.2;;;37.21;;
36833;SDS011;48003;52.084;5.224;2023-03-08T05:31:28;84.2;;;39.81;;
36833;SDS011;48003;52.084;5.224;2023-03-08T05:34:41;71.61;;;38.0;;
36833;SDS011;48003;52.084;5.224;2023-03-08T05:36:18;82.9;;;39.0;;
36833;SDS011;48003;52.084;5.224;2023-03-08T05:37:54;82.4;;;40.71;;
36833;SDS011;48003;52.084;5.224;2023-03-08T05:39:30;80.0;;;41.5;;
36833;SDS011;48003;52.084;5.224;2023-03-08T05:42:46;77.7;;;40.81;;
36833;SDS011;48003;52.084;5.224;2023-03-08T05:44:23;78.41;;;40.9;;
36833;SDS011;48003;52.084;5.224;2023-03-08T05:45:59;76.41;;;40.31;;
36833;SDS011;48003;52.084;5.224;2023-03-08T05:49:13;75.2;;;39.9;;
36833;SDS011;48003;52.084;5.224;2023-03-08T05:50:49;72.8;;;41.3;;
36833;SDS011;48003;52.084;5.224;2023-03-08T05:52:28;72.8;;;41.3;;
36833;SDS011;48003;52.084;5.224;2023-03-08T05:54:05;72.2;;;39.71;;
36833;SDS011;48003;52.084;5.224;2023-03-08T05:57:17;72.8;;;39.31;;
36833;SDS011;48003;52.084;5.224;2023-03-08T05:58:53;64.91;;;37.4;;
36833;SDS011;48003;52.084;5.224;2023-03-08T06:00:30;75.0;;;39.31;;
36833;SDS011;48003;52.084;5.224;2023-03-08T06:03:43;69.91;;;39.5;;
36833;SDS011;48003;52.084;5.224;2023-03-08T06:05:19;63.9;;;37.31;;
36833;SDS011;48003;52.084;5.224;2023-03-08T06:06:56;63.9;;;37.31;;
36833;SDS011;48003;52.084;5.224;2023-03-08T06:10:08;63.9;;;36.71;;
36833;SDS011;48003;52.084;5.224;2023-03-08T06:11:45;65.7;;;37.31;;
36833;SDS011;48003;52.084;5.224;2023-03-08T06:13:21;61.7;;;35.6;;
36833;SDS011;48003;52.084;5.224;2023-03-08T06:14:57;63.9;;;37.5;;
36833;SDS011;48003;52.084;5.224;2023-03-08T06:18:10;59.8;;;36.31;;
36833;SDS011;48003;52.084;5.224;2023-03-08T06:19:46;57.9;;;35.0;;
36833;SDS011;48003;52.084;5.224;2023-03-08T06:21:22;61.5;;;36.81;;
36833;SDS011;48003;52.084;5.224;2023-03-08T06:24:34;56.4;;;34.4;;
36833;SDS011;48003;52.084;5.224;2023-03-08T06:26:10;61.4;;;36.0;;
36833;SDS011;48003;52.084;5.224;2023-03-08T06:27:47;62.1;;;35.9;;
36833;SDS011;48003;52.084;5.224;2023-03-08T06:31:01;62.3;;;36.81;;
36833;SDS011;48003;52.084;5.224;2023-03-08T06:32:38;57.0;;;34.9;;
36833;SDS011;48003;52.084;5.224;2023-03-08T06:34:14;64.7;;;36.1;;
36833;SDS011;48003;52.084;5.224;2023-03-08T06:37:35;61.4;;;35.81;;
36833;SDS011;48003;52.084;5.224;2023-03-08T06:39:11;58.8;;;35.1;;
36833;SDS011;48003;52.084;5.224;2023-03-08T06:40:48;67.1;;;37.6;;
36833;SDS011;48003;52.084;5.224;2023-03-08T06:42:24;65.6;;;37.4;;
36833;SDS011;48003;52.084;5.224;2023-03-08T06:45:36;60.4;;;34.71;;
36833;SDS011;48003;52.084;5.224;2023-03-08T06:47:13;60.9;;;35.71;;
36833;SDS011;48003;52.084;5.224;2023-03-08T06:48:49;61.5;;;35.21;;
36833;SDS011;48003;52.084;5.224;2023-03-08T06:52:03;65.7;;;36.71;;
36833;SDS011;48003;52.084;5.224;2023-03-08T06:53:40;64.7;;;35.4;;
36833;SDS011;48003;52.084;5.224;2023-03-08T06:55:16;63.0;;;36.5;;
36833;SDS011;48003;52.084;5.224;2023-03-08T06:56:52;65.41;;;35.9;;
36833;SDS011;48003;52.084;5.224;2023-03-08T07:00:06;65.8;;;36.81;;
36833;SDS011;48003;52.084;5.224;2023-03-08T07:01:43;66.0;;;36.6;;
36833;SDS011;48003;52.084;5.224;2023-03-08T07:03:20;69.91;;;39.31;;
36833;SDS011;48003;52.084;5.224;2023-03-08T07:06:32;66.5;;;37.71;;
36833;SDS011;48003;52.084;5.224;2023-03-08T07:08:08;65.1;;;37.31;;
36833;SDS011;48003;52.084;5.224;2023-03-08T07:09:44;67.41;;;38.6;;
36833;SDS011;48003;52.084;5.224;2023-03-08T07:12:56;68.1;;;38.71;;
36833;SDS011;48003;52.084;5.224;2023-03-08T07:14:32;68.1;;;37.1;;
36833;SDS011;48003;52.084;5.224;2023-03-08T07:16:09;64.7;;;36.81;;
36833;SDS011;48003;52.084;5.224;2023-03-08T07:17:47;61.4;;;36.0;;
36833;SDS011;48003;52.084;5.224;2023-03-08T07:21:01;56.2;;;35.31;;
36833;SDS011;48003;52.084;5.224;2023-03-08T07:22:39;60.9;;;36.21;;
36833;SDS011;48003;52.084;5.224;2023-03-08T07:24:15;56.8;;;36.6;;
36833;SDS011;48003;52.084;5.224;2023-03-08T07:27:28;63.5;;;36.81;;
36833;SDS011;48003;52.084;5.224;2023-03-08T07:29:04;66.0;;;38.9;;
36833;SDS011;48003;52.084;5.224;2023-03-08T07:30:44;62.0;;;37.71;;
36833;SDS011;48003;52.084;5.224;2023-03-08T07:32:21;63.4;;;37.81;;
36833;SDS011;48003;52.084;5.224;2023-03-08T07:35:33;63.0;;;37.81;;
36833;SDS011;48003;52.084;5.224;2023-03-08T07:37:10;64.0;;;38.0;;
36833;SDS011;48003;52.084;5.224;2023-03-08T07:38:47;63.2;;;38.0;;
36833;SDS011;48003;52.084;5.224;2023-03-08T07:42:00;56.3;;;36.0;;
36833;SDS011;48003;52.084;5.224;2023-03-08T07:43:36;64.6;;;37.9;;
36833;SDS011;48003;52.084;5.224;2023-03-08T07:45:13;64.2;;;38.9;;
36833;SDS011;48003;52.084;5.224;2023-03-08T07:48:26;67.5;;;40.21;;
36833;SDS011;48003;52.084;5.224;2023-03-08T07:50:02;65.0;;;38.31;;
36833;SDS011;48003;52.084;5.224;2023-03-08T07:51:38;70.5;;;40.0;;
36833;SDS011;48003;52.084;5.224;2023-03-08T07:54:50;63.2;;;37.6;;
36833;SDS011;48003;52.084;5.224;2023-03-08T07:56:26;66.5;;;39.6;;
36833;SDS011;48003;52.084;5.224;2023-03-08T07:58:02;58.9;;;37.71;;
36833;SDS011;48003;52.084;5.224;2023-03-08T07:59:39;67.41;;;37.5;;
36833;SDS011;48003;52.084;5.224;2023-03-08T08:02:52;63.6;;;37.5;;
36833;SDS011;48003;52.084;5.224;2023-03-08T08:04:28;65.0;;;38.1;;
36833;SDS011;48003;52.084;5.224;2023-03-08T08:06:05;60.6;;;35.71;;
36833;SDS011;48003;52.084;5.224;2023-03-08T08:09:20;54.5;;;33.1;;
36833;SDS011;48003;52.084;5.224;2023-03-08T08:10:57;57.8;;;34.71;;
36833;SDS011;48003;52.084;5.224;2023-03-08T08:12:33;59.1;;;35.5;;
36833;SDS011;48003;52.084;5.224;2023-03-08T08:15:45;58.4;;;36.1;;
36833;SDS011;48003;52.084;5.224;2023-03-08T08:17:21;56.8;;;34.21;;
36833;SDS011;48003;52.084;5.224;2023-03-08T08:18:57;60.3;;;35.1;;
36833;SDS011;48003;52.084;5.224;2023-03-08T08:20:33;56.9;;;33.0;;
36833;SDS011;48003;52.084;5.224;2023-03-08T08:23:46;55.5;;;33.8;;
36833;SDS011;48003;52.084;5.224;2023-03-08T08:25:23;58.4;;;33.4;;
36833;SDS011;48003;52.084;5.224;2023-03-08T08:26:59;63.3;;;35.6;;
36833;SDS011;48003;52.084;5.224;2023-03-08T08:30:13;64.8;;;36.5;;
36833;SDS011;48003;52.084;5.224;2023-03-08T08:31:50;65.41;;;35.81;;
36833;SDS011;48003;52.084;5.224;2023-03-08T08:33:27;72.41;;;38.21;;
36833;SDS011;48003;52.084;5.224;2023-03-08T08:36:41;67.3;;;37.1;;
36833;SDS011;48003;52.084;5.224;2023-03-08T08:38:17;65.2;;;37.21;;
36833;SDS011;48003;52.084;5.224;2023-03-08T08:39:53;65.3;;;36.81;;
36833;SDS011;48003;52.084;5.224;2023-03-08T08:41:29;65.2;;;36.6;;
36833;SDS011;48003;52.084;5.224;2023-03-08T08:44:42;62.8;;;35.1;;
36833;SDS011;48003;52.084;5.224;2023-03-08T08:46:18;69.2;;;38.21;;
36833;SDS011;48003;52.084;5.224;2023-03-08T08:47:54;73.11;;;39.4;;
36833;SDS011;48003;52.084;5.224;2023-03-08T08:51:07;77.91;;;39.31;;
36833;SDS011;48003;52.084;5.224;2023-03-08T08:52:46;76.3;;;39.6;;
36833;SDS011;48003;52.084;5.224;2023-03-08T08:54:22;73.3;;;38.81;;
36833;SDS011;48003;52.084;5.224;2023-03-08T08:57:45;80.0;;;40.6;;
36833;SDS011;48003;52.084;5.224;2023-03-08T08:59:21;86.4;;;42.7;;
36833;SDS011;48003;52.084;5.224;2023-03-08T09:00:57;85.4;;;41.8;;
36833;SDS011;48003;52.084;5.224;2023-03-08T09:02:33;83.9;;;42.0;;
36833;SDS011;48003;52.084;5.224;2023-03-08T09:05:46;88.3;;;41.9;;
36833;SDS011;48003;52.084;5.224;2023-03-08T09:07:23;89.7;;;42.0;;
36833;SDS011;48003;52.084;5.224;2023-03-08T09:08:59;87.8;;;40.9;;
36833;SDS011;48003;52.084;5.224;2023-03-08T09:12:14;84.3;;;40.81;;
36833;SDS011;48003;52.084;5.224;2023-03-08T09:13:51;84.5;;;41.4;;
36833;SDS011;48003;52.084;5.224;2023-03-08T09:15:27;84.9;;;40.4;;
36833;SDS011;48003;52.084;5.224;2023-03-08T09:17:04;79.3;;;38.9;;
36833;SDS011;48003;52.084;5.224;2023-03-08T09:20:17;82.4;;;39.5;;
36833;SDS011;48003;52.084;5.224;2023-03-08T09:21:54;78.5;;;37.9;;
36833;SDS011;48003;52.084;5.224;2023-03-08T09:23:30;79.41;;;38.81;;
36833;SDS011;48003;52.084;5.224;2023-03-08T09:26:45;77.91;;;37.6;;
36833;SDS011;48003;52.084;5.224;2023-03-08T09:28:22;81.2;;;39.5;;
36833;SDS011;48003;52.084;5.224;2023-03-08T09:29:58;78.5;;;39.9;;
36833;SDS011;48003;52.084;5.224;2023-03-08T09:33:13;79.8;;;40.4;;
36833;SDS011;48003;52.084;5.224;2023-03-08T09:34:49;80.7;;;39.81;;
36833;SDS011;48003;52.084;5.224;2023-03-08T09:36:25;83.6;;;39.81;;
36833;SDS011;48003;52.084;5.224;2023-03-08T09:38:01;75.61;;;37.71;;
36833;SDS011;48003;52.084;5.224;2023-03-08T09:42:13;71.8;;;35.5;;
36833;SDS011;48003;52.084;5.224;2023-03-08T09:43:56;74.8;;;37.4;;
36833;SDS011;48003;52.084;5.224;2023-03-08T09:45:50;78.11;;;36.6;;
36833;SDS011;48003;52.084;5.224;2023-03-08T09:47:29;73.3;;;36.21;;
36833;SDS011;48003;52.084;5.224;2023-03-08T09:49:13;74.5;;;37.21;;
36833;SDS011;48003;52.084;5.224;2023-03-08T09:50:54;70.5;;;37.21;;
36833;SDS011;48003;52.084;5.224;2023-03-08T09:52:34;70.5;;;36.21;;
36833;SDS011;48003;52.084;5.224;2023-03-08T09:55:57;74.7;;;37.4;;
36833;SDS011;48003;52.084;5.224;2023-03-08T09:57:39;77.3;;;37.81;;
36833;SDS011;48003;52.084;5.224;2023-03-08T09:59:22;72.8;;;37.71;;
36833;SDS011;48003;52.084;5.224;2023-03-08T10:01:11;69.2;;;37.6;;
36833;SDS011;48003;52.084;5.224;2023-03-08T10:03:06;77.91;;;38.1;;
36833;SDS011;48003;52.084;5.224;2023-03-08T10:06:46;66.41;;;36.5;;
36833;SDS011;48003;52.084;5.224;2023-03-08T10:08:32;66.0;;;34.81;;
36833;SDS011;48003;52.084;5.224;2023-03-08T10:10:16;72.7;;;35.81;;
36833;SDS011;48003;52.084;5.224;2023-03-08T10:12:08;67.41;;;34.5;;
36833;SDS011;48003;52.084;5.224;2023-03-08T10:13:55;62.1;;;32.71;;
36833;SDS011;48003;52.084;5.224;2023-03-08T10:15:37;59.5;;;32.9;;
36833;SDS011;48003;52.084;5.224;2023-03-08T10:18:57;57.0;;;32.6;;
36833;SDS011;48003;52.084;5.224;2023-03-08T10:20:39;61.3;;;33.5;;
36833;SDS011;48003;52.084;5.224;2023-03-08T10:22:19;57.7;;;32.21;;
36833;SDS011;48003;52.084;5.224;2023-03-08T10:24:03;56.2;;;30.6;;
36833;SDS011;48003;52.084;5.224;2023-03-08T10:27:31;55.1;;;30.5;;
36833;SDS011;48003;52.084;5.224;2023-03-08T10:29:10;56.2;;;30.8;;
36833;SDS011;48003;52.084;5.224;2023-03-08T10:30:47;51.0;;;28.6;;
36833;SDS011;48003;52.084;5.224;2023-03-08T10:32:26;48.4;;;28.6;;
36833;SDS011;48003;52.084;5.224;2023-03-08T10:35:52;50.6;;;28.3;;
36833;SDS011;48003;52.084;5.224;2023-03-08T10:37:31;45.8;;;27.3;;
36833;SDS011;48003;52.084;5.224;2023-03-08T10:39:09;44.1;;;25.6;;
36833;SDS011;48003;52.084;5.224;2023-03-08T10:40:45;45.0;;;26.9;;
36833;SDS011;48003;52.084;5.224;2023-03-08T10:44:03;42.3;;;25.7;;
36833;SDS011;48003;52.084;5.224;2023-03-08T10:45:39;42.6;;;24.8;;
36833;SDS011;48003;52.084;5.224;2023-03-08T10:47:17;42.8;;;25.4;;
36833;SDS011;48003;52.084;5.224;2023-03-08T10:50:42;48.4;;;26.2;;
36833;SDS011;48003;52.084;5.224;2023-03-08T10:52:20;39.9;;;24.3;;
36833;SDS011;48003;52.084;5.224;2023-03-08T10:54:02;38.4;;;23.6;;
36833;SDS011;48003;52.084;5.224;2023-03-08T10:55:42;39.4;;;24.2;;
36833;SDS011;48003;52.084;5.224;2023-03-08T10:57:22;40.71;;;24.7;;
36833;SDS011;48003;52.084;5.224;2023-03-08T11:00:36;37.9;;;24.3;;
36833;SDS011;48003;52.084;5.224;2023-03-08T11:02:15;41.0;;;23.7;;
36833;SDS011;48003;52.084;5.224;2023-03-08T11:03:57;40.81;;;23.9;;
36833;SDS011;48003;52.084;5.224;2023-03-08T11:07:16;37.4;;;23.7;;
36833;SDS011;48003;52.084;5.224;2023-03-08T11:08:57;41.7;;;24.6;;
36833;SDS011;48003;52.084;5.224;2023-03-08T11:10:37;37.4;;;22.9;;
36833;SDS011;48003;52.084;5.224;2023-03-08T11:12:20;37.5;;;23.5;;
36833;SDS011;48003;52.084;5.224;2023-03-08T11:15:36;38.31;;;24.5;;
36833;SDS011;48003;52.084;5.224;2023-03-08T11:17:18;39.21;;;24.2;;
36833;SDS011;48003;52.084;5.224;2023-03-08T11:19:02;40.0;;;24.0;;
36833;SDS011;48003;52.084;5.224;2023-03-08T11:20:49;41.1;;;25.0;;
36833;SDS011;48003;52.084;5.224;2023-03-08T11:22:37;43.7;;;25.0;;
36833;SDS011;48003;52.084;5.224;2023-03-08T11:25:27;37.6;;;23.6;;
36833;SDS011;48003;52.084;5.224;2023-03-08T11:27:23;35.81;;;23.0;;
36833;SDS011;48003;52.084;5.224;2023-03-08T11:29:16;34.31;;;21.9;;
36833;SDS011;48003;52.084;5.224;2023-03-08T11:31:09;34.5;;;21.8;;
36833;SDS011;48003;52.084;5.224;2023-03-08T11:35:06;33.9;;;22.2;;
36833;SDS011;48003;52.084;5.224;2023-03-08T11:36:50;36.6;;;23.2;;
36833;SDS011;48003;52.084;5.224;2023-03-08T11:38:37;36.31;;;23.3;;
36833;SDS011;48003;52.084;5.224;2023-03-08T11:40:19;36.81;;;22.5;;
36833;SDS011;48003;52.084;5.224;2023-03-08T11:42:01;34.6;;;21.7;;
36833;SDS011;48003;52.084;5.224;2023-03-08T11:43:49;35.9;;;22.3;;
36833;SDS011;48003;52.084;5.224;2023-03-08T11:45:44;35.1;;;21.6;;
36833;SDS011;48003;52.084;5.224;2023-03-08T11:50:51;34.6;;;22.2;;
36833;SDS011;48003;52.084;5.224;2023-03-08T11:52:34;32.8;;;20.11;;
36833;SDS011;48003;52.084;5.224;2023-03-08T11:54:25;36.5;;;21.5;;
36833;SDS011;48003;52.084;5.224;2023-03-08T11:56:22;32.8;;;20.6;;
36833;SDS011;48003;52.084;5.224;2023-03-08T11:58:33;31.9;;;20.11;;
36833;SDS011;48003;52.084;5.224;2023-03-08T12:00:15;33.0;;;21.1;;
36833;SDS011;48003;52.084;5.224;2023-03-08T12:03:46;35.6;;;21.4;;
36833;SDS011;48003;52.084;5.224;2023-03-08T12:05:27;32.8;;;21.2;;
36833;SDS011;48003;52.084;5.224;2023-03-08T12:07:07;32.6;;;19.3;;
36833;SDS011;48003;52.084;5.224;2023-03-08T12:08:52;34.0;;;20.11;;
36833;SDS011;48003;52.084;5.224;2023-03-08T12:12:19;30.6;;;18.41;;
36833;SDS011;48003;52.084;5.224;2023-03-08T12:14:03;29.5;;;17.61;;
36833;SDS011;48003;52.084;5.224;2023-03-08T12:15:51;29.2;;;17.7;;
36833;SDS011;48003;52.084;5.224;2023-03-08T12:17:31;28.7;;;18.0;;
36833;SDS011;48003;52.084;5.224;2023-03-08T12:19:14;31.8;;;18.7;;
36833;SDS011;48003;52.084;5.224;2023-03-08T12:21:06;35.9;;;18.8;;
36833;SDS011;48003;52.084;5.224;2023-03-08T12:24:47;31.1;;;18.2;;
36833;SDS011;48003;52.084;5.224;2023-03-08T12:26:32;30.9;;;19.0;;
36833;SDS011;48003;52.084;5.224;2023-03-08T12:28:13;30.8;;;18.41;;
36833;SDS011;48003;52.084;5.224;2023-03-08T12:29:57;28.7;;;17.2;;
36833;SDS011;48003;52.084;5.224;2023-03-08T12:31:41;30.3;;;18.41;;
36833;SDS011;48003;52.084;5.224;2023-03-08T12:34:59;27.9;;;17.7;;
36833;SDS011;48003;52.084;5.224;2023-03-08T12:36:39;29.8;;;18.41;;
36833;SDS011;48003;52.084;5.224;2023-03-08T12:38:34;28.2;;;17.91;;
36833;SDS011;48003;52.084;5.224;2023-03-08T12:40:25;26.1;;;16.7;;
36833;SDS011;48003;52.084;5.224;2023-03-08T12:43:15;26.8;;;16.7;;
36833;SDS011;48003;52.084;5.224;2023-03-08T12:45:07;26.4;;;16.0;;
36833;SDS011;48003;52.084;5.224;2023-03-08T12:47:01;25.4;;;15.7;;